Time;durP1;ratioP1;P1;durP2;ratioP2;P2;SDS_P1;SDS_P2;PMS_P1;PMS_P2;Temp;Humidity;BMP_temperature;BMP_pressure;BME280_temperature;BME280_humidity;BME280_pressure;Samples;Min_cycle;Max_cycle;Signal;HPM_P1;HPM_P2
2022/04/19 00:00:27;;;;;;;9.05;6.18;;;7.10;99.90;;;;;;5104477;28;20051;-27
2022/04/19 00:02:53;;;;;;;8.57;5.38;;;7.10;99.90;;;;;;5126916;27;20035;-26
2022/04/19 00:05:19;;;;;;;10.18;6.07;;;7.10;99.90;;;;;;5099149;27;20045;-26
2022/04/19 00:07:45;;;;;;;9.30;5.72;;;7.20;99.90;;;;;;5123047;27;20046;-26
2022/04/19 00:10:11;;;;;;;9.52;5.65;;;7.20;99.90;;;;;;5105356;27;20058;-26
2022/04/19 00:12:39;;;;;;;11.05;5.85;;;7.10;99.90;;;;;;5135828;27;20045;-27
2022/04/19 00:15:06;;;;;;;9.02;5.57;;;7.20;99.90;;;;;;5116616;27;20116;-27
2022/04/19 00:17:32;;;;;;;10.35;6.05;;;7.20;99.90;;;;;;5134104;27;20051;-27
2022/04/19 00:19:58;;;;;;;8.38;5.22;;;7.20;99.90;;;;;;5132241;27;20096;-27
2022/04/19 00:22:24;;;;;;;9.23;5.25;;;7.20;99.90;;;;;;5113391;28;20050;-26
2022/04/19 00:24:49;;;;;;;9.82;5.35;;;7.20;99.90;;;;;;5132487;27;20065;-26
2022/04/19 00:27:15;;;;;;;9.40;5.40;;;7.20;99.90;;;;;;5133836;27;20062;-26
2022/04/19 00:29:41;;;;;;;13.10;6.85;;;7.20;99.90;;;;;;5133825;27;20046;-27
2022/04/19 00:32:11;;;;;;;8.63;5.45;;;7.20;99.90;;;;;;5107692;28;20043;-27
2022/04/19 00:34:38;;;;;;;11.85;6.10;;;7.10;99.90;;;;;;5121762;27;20110;-27
2022/04/19 00:37:05;;;;;;;10.88;6.30;;;7.00;99.90;;;;;;5118157;27;20062;-27
2022/04/19 00:39:31;;;;;;;9.93;6.43;;;7.00;99.90;;;;;;5113287;28;20401;-27
2022/04/19 00:41:57;;;;;;;10.90;6.30;;;6.90;99.90;;;;;;5107999;28;20043;-26
2022/04/19 00:44:25;;;;;;;10.02;6.68;;;6.90;99.90;;;;;;5132463;28;20039;-27
2022/04/19 00:46:51;;;;;;;10.77;6.82;;;6.90;99.90;;;;;;5116203;28;20401;-26
2022/04/19 00:49:17;;;;;;;11.25;6.00;;;6.80;99.90;;;;;;5119896;28;20048;-26
2022/04/19 00:51:44;;;;;;;11.32;6.60;;;6.70;99.90;;;;;;5113051;28;20036;-27
2022/04/19 00:54:11;;;;;;;10.57;6.63;;;6.60;99.90;;;;;;5115258;28;20083;-27
2022/04/19 00:56:38;;;;;;;9.88;6.43;;;6.50;99.90;;;;;;5118980;28;20044;-27
2022/04/19 00:59:04;;;;;;;9.25;6.35;;;6.40;99.90;;;;;;5095845;28;20048;-26
2022/04/19 01:01:30;;;;;;;10.85;6.57;;;6.40;99.90;;;;;;5115387;27;20092;-27
2022/04/19 01:03:58;;;;;;;11.52;6.75;;;6.80;99.90;;;;;;5116735;28;20043;-27
2022/04/19 01:06:24;;;;;;;12.23;7.40;;;6.30;99.90;;;;;;5121121;27;20048;-27
2022/04/19 01:08:50;;;;;;;9.57;6.53;;;6.30;99.90;;;;;;5117010;27;20050;-27
2022/04/19 01:14:03;;;;;;;12.55;6.50;;;6.20;99.90;;;;;;5103148;28;20083;-27
2022/04/19 01:16:29;;;;;;;10.87;6.27;;;5.60;99.90;;;;;;5127769;27;20099;-27
2022/04/19 01:18:56;;;;;;;11.47;7.23;;;5.60;1.00;;;;;;5117835;28;20055;-26
2022/04/19 01:21:22;;;;;;;11.40;7.20;;;5.20;1.00;;;;;;5121267;27;20432;-27
2022/04/19 01:23:49;;;;;;;11.63;6.60;;;4.60;1.00;;;;;;5108593;27;20088;-26
2022/04/19 01:26:17;;;;;;;10.40;6.63;;;4.50;1.00;;;;;;5137297;27;20408;-26
2022/04/19 01:28:43;;;;;;;10.30;6.60;;;4.60;1.00;;;;;;5134778;27;20043;-26
2022/04/19 01:31:10;;;;;;;11.17;6.97;;;4.30;1.00;;;;;;5119988;27;20511;-26
2022/04/19 01:33:36;;;;;;;12.43;7.90;;;5.60;1.00;;;;;;5119911;27;20114;-26
2022/04/19 01:36:03;;;;;;;11.13;7.67;;;4.70;1.00;;;;;;5117005;28;20429;-26
2022/04/19 01:38:28;;;;;;;11.83;7.70;;;4.40;1.00;;;;;;5126367;27;20049;-26
2022/04/19 01:40:54;;;;;;;13.93;8.20;;;4.40;1.00;;;;;;5124375;27;20488;-26
2022/04/19 01:43:20;;;;;;;13.60;7.17;;;4.50;1.00;;;;;;5117372;28;20040;-26
2022/04/19 01:45:46;;;;;;;11.40;7.37;;;4.90;1.00;;;;;;5117404;28;20146;-26
2022/04/19 01:48:11;;;;;;;13.63;7.33;;;4.90;1.00;;;;;;5099397;27;20043;-26
2022/04/19 01:50:38;;;;;;;11.50;7.90;;;4.20;1.00;;;;;;5117294;28;20043;-26
2022/04/19 01:53:04;;;;;;;11.83;7.30;;;3.90;1.00;;;;;;5117370;27;20079;-28
2022/04/19 01:55:30;;;;;;;14.37;8.77;;;3.80;1.00;;;;;;5133210;27;20074;-26
2022/04/19 01:57:59;;;;;;;12.70;8.87;;;3.80;1.00;;;;;;5137012;27;20107;-26
2022/04/19 02:00:26;;;;;;;13.93;9.80;;;3.80;1.00;;;;;;5135189;27;20043;-26
2022/04/19 02:02:55;;;;;;;18.73;8.27;;;;;;;;;;5136939;27;20045;-26
2022/04/19 02:05:21;;;;;;;13.07;8.00;;;3.70;1.00;;;;;;5137797;27;20173;-26
2022/04/19 02:07:47;;;;;;;13.30;7.77;;;3.70;1.00;;;;;;5121268;27;20052;-26
2022/04/19 02:10:15;;;;;;;12.73;7.70;;;3.70;25.20;;;;;;5118441;27;20058;-26
2022/04/19 02:12:41;;;;;;;14.80;7.87;;;3.60;16.70;;;;;;5128973;27;20043;-26
2022/04/19 02:15:08;;;;;;;13.57;7.97;;;3.60;22.90;;;;;;5136336;27;20147;-26
2022/04/19 02:17:42;;;;;;;11.33;7.90;;;3.50;15.30;;;;;;5085291;27;20050;-26
2022/04/19 02:20:08;;;;;;;13.55;8.50;;;3.40;18.80;;;;;;5097330;28;20047;-27
2022/04/19 02:22:34;;;;;;;14.43;8.67;;;3.40;25.80;;;;;;5127392;27;20047;-26
2022/04/19 02:25:00;;;;;;;11.63;7.43;;;3.40;31.40;;;;;;5114188;28;20048;-26
2022/04/19 02:27:31;;;;;;;14.43;9.60;;;3.40;39.00;;;;;;5102223;28;20127;-26
2022/04/19 02:29:57;;;;;;;13.37;8.20;;;3.50;56.40;;;;;;5096141;28;20056;-26
2022/04/19 02:32:23;;;;;;;14.43;8.67;;;3.50;60.60;;;;;;5113566;28;20493;-26
2022/04/19 02:34:53;;;;;;;14.90;9.63;;;3.50;75.20;;;;;;5103602;28;20371;-26
2022/04/19 02:37:19;;;;;;;17.57;9.13;;;3.50;93.30;;;;;;5105987;28;20139;-26
2022/04/19 02:39:49;;;;;;;18.50;10.77;;;3.60;97.10;;;;;;5107392;28;20086;-26
2022/04/19 02:42:15;;;;;;;16.57;10.60;;;3.60;99.90;;;;;;5105322;28;20047;-26
2022/04/19 02:44:41;;;;;;;16.33;10.07;;;3.70;99.90;;;;;;5106017;28;20142;-26
2022/04/19 02:47:07;;;;;;;17.17;10.50;;;3.70;99.90;;;;;;5098177;28;20087;-26
2022/04/19 02:49:34;;;;;;;17.57;10.73;;;3.80;99.90;;;;;;5116120;28;20047;-27
2022/04/19 02:52:00;;;;;;;15.20;10.67;;;3.90;99.90;;;;;;5114176;28;20044;-26
2022/04/19 02:54:26;;;;;;;15.63;9.23;;;3.90;99.90;;;;;;5110124;28;20052;-26
2022/04/19 02:56:52;;;;;;;14.73;9.00;;;4.10;99.90;;;;;;5107728;28;20123;-26
2022/04/19 02:59:18;;;;;;;15.47;8.47;;;4.20;99.90;;;;;;5115962;28;20101;-27
2022/04/19 03:01:44;;;;;;;16.57;8.83;;;4.40;99.90;;;;;;5113472;28;20080;-26
2022/04/19 03:04:09;;;;;;;13.30;8.60;;;4.70;99.90;;;;;;5111208;28;20050;-26
2022/04/19 03:06:35;;;;;;;11.23;7.97;;;4.90;99.90;;;;;;5114746;28;20051;-27
2022/04/19 03:09:02;;;;;;;13.70;8.20;;;5.10;99.90;;;;;;5108859;28;20051;-26
2022/04/19 03:11:28;;;;;;;11.80;7.60;;;5.20;99.90;;;;;;5105596;28;20048;-26
2022/04/19 03:13:55;;;;;;;13.27;7.80;;;5.40;99.90;;;;;;5105183;28;20058;-26
2022/04/19 03:16:21;;;;;;;13.67;7.87;;;5.50;99.90;;;;;;5104534;28;20044;-27
2022/04/19 03:18:47;;;;;;;15.77;8.27;;;5.50;99.90;;;;;;5115499;28;20043;-27
2022/04/19 03:21:13;;;;;;;10.57;7.27;;;5.60;99.90;;;;;;5115557;28;20104;-27
2022/04/19 03:29:10;;;;;;;20.83;7.60;;;5.80;99.90;;;;;;5115045;28;20497;-27
2022/04/19 03:31:36;;;;;;;9.67;6.30;;;5.80;99.90;;;;;;5114988;27;20096;-26
2022/04/19 03:34:06;;;;;;;10.43;6.93;;;5.90;94.20;;;;;;5097843;27;20047;-27
2022/04/19 03:36:32;;;;;;;12.10;7.70;;;5.90;85.90;;;;;;5109967;28;20393;-26
2022/04/19 03:38:58;;;;;;;11.20;6.70;;;5.90;78.30;;;;;;5114828;28;20114;-27
2022/04/19 03:41:25;;;;;;;13.18;7.30;;;5.90;76.40;;;;;;5123503;27;20050;-26
2022/04/19 03:43:53;;;;;;;10.73;7.10;;;5.90;76.60;;;;;;5126622;27;20055;-26
2022/04/19 03:46:20;;;;;;;10.52;7.50;;;5.90;82.30;;;;;;5129276;27;20107;-26
2022/04/19 03:48:45;;;;;;;11.13;7.37;;;5.80;75.10;;;;;;5108471;27;20054;-26
2022/04/19 03:51:11;;;;;;;11.47;7.87;;;5.80;77.10;;;;;;5123821;27;20044;-26
2022/04/19 03:53:37;;;;;;;9.80;7.33;;;5.80;78.30;;;;;;5134724;27;20058;-26
2022/04/19 03:56:03;;;;;;;10.73;7.27;;;5.80;74.90;;;;;;5133158;27;20492;-26
2022/04/19 03:58:32;;;;;;;9.10;6.72;;;5.80;75.10;;;;;;5134267;27;20126;-26
2022/04/19 04:01:01;;;;;;;11.50;7.87;;;5.80;92.40;;;;;;5135286;27;20047;-26
2022/04/19 04:03:27;;;;;;;11.10;6.83;;;5.70;78.20;;;;;;5132833;27;20495;-27
2022/04/19 04:05:56;;;;;;;9.50;7.00;;;5.70;83.80;;;;;;5132877;27;20047;-26
2022/04/19 04:08:22;;;;;;;11.50;7.95;;;5.70;82.50;;;;;;5132834;27;20188;-26
2022/04/19 04:10:48;;;;;;;11.30;7.03;;;5.70;83.30;;;;;;5133438;27;20031;-26
2022/04/19 04:13:13;;;;;;;10.52;7.32;;;5.60;79.00;;;;;;5105899;28;20051;-26
2022/04/19 04:15:39;;;;;;;13.67;7.77;;;5.60;87.00;;;;;;5127663;27;20047;-26
2022/04/19 04:18:05;;;;;;;13.90;7.70;;;5.60;84.10;;;;;;5132936;27;20146;-26
2022/04/19 04:20:31;;;;;;;10.83;6.90;;;5.50;91.20;;;;;;5132731;27;20043;-26
2022/04/19 04:22:56;;;;;;;11.80;7.17;;;5.50;94.50;;;;;;5134882;27;20130;-26
2022/04/19 04:25:22;;;;;;;9.53;6.37;;;5.50;95.60;;;;;;5134822;27;20050;-26
2022/04/19 04:27:48;;;;;;;11.70;7.32;;;5.50;96.90;;;;;;5124335;27;20047;-26
2022/04/19 04:30:14;;;;;;;12.67;7.80;;;5.50;97.00;;;;;;5109813;27;20050;-27
2022/04/19 04:32:39;;;;;;;13.00;7.30;;;5.50;98.90;;;;;;5133674;27;20091;-27
2022/04/19 04:35:06;;;;;;;12.53;7.20;;;5.50;98.80;;;;;;5115328;27;20065;-26
2022/04/19 04:37:32;;;;;;;12.27;7.80;;;5.50;96.90;;;;;;5114980;28;20047;-26
2022/04/19 04:39:58;;;;;;;11.87;8.03;;;5.50;98.20;;;;;;5133599;27;20520;-26
2022/04/19 04:42:24;;;;;;;15.00;7.97;;;5.50;98.60;;;;;;5115350;28;20047;-26
2022/04/19 04:44:49;;;;;;;11.40;7.33;;;5.50;99.90;;;;;;5115338;28;20054;-26
2022/04/19 04:50:01;;;;;;;15.63;7.88;;;5.50;99.90;;;;;;5132236;28;20058;-26
2022/04/19 04:52:26;;;;;;;15.37;9.33;;;5.50;99.90;;;;;;5125058;28;20062;-26
2022/04/19 04:54:52;;;;;;;11.07;7.30;;;5.50;99.90;;;;;;5129067;28;20489;-26
2022/04/19 04:57:19;;;;;;;11.77;7.80;;;5.60;99.90;;;;;;5134550;28;20039;-27
2022/04/19 04:59:47;;;;;;;12.18;7.10;;;5.60;99.90;;;;;;5131129;28;20043;-27
2022/04/19 05:02:12;;;;;;;14.57;7.63;;;5.60;99.90;;;;;;5134170;28;20396;-26
2022/04/19 05:04:38;;;;;;;13.98;7.50;;;5.60;99.90;;;;;;5129794;28;20050;-27
2022/04/19 05:07:04;;;;;;;16.43;8.43;;;5.60;99.90;;;;;;5127659;28;20087;-26
2022/04/19 05:09:30;;;;;;;13.73;7.63;;;5.70;99.90;;;;;;5128743;28;20122;-27
2022/04/19 05:11:56;;;;;;;13.07;8.43;;;5.70;99.90;;;;;;5134090;28;20055;-26
2022/04/19 05:14:22;;;;;;;14.97;7.67;;;5.70;99.90;;;;;;5099811;28;20576;-26
2022/04/19 05:16:47;;;;;;;12.25;8.07;;;5.80;99.90;;;;;;5113258;28;20404;-26
2022/04/19 05:19:13;;;;;;;15.30;7.75;;;5.80;99.90;;;;;;5096120;28;20048;-27
2022/04/19 05:21:39;;;;;;;14.82;8.50;;;5.90;99.90;;;;;;5102894;28;20110;-26
2022/04/19 05:24:06;;;;;;;15.30;7.85;;;5.90;99.90;;;;;;5113822;28;20047;-26
2022/04/19 05:26:32;;;;;;;18.15;8.13;;;6.00;99.90;;;;;;5112996;28;20066;-27
2022/04/19 05:28:58;;;;;;;13.30;7.95;;;6.10;99.90;;;;;;5129825;28;20052;-26
2022/04/19 05:31:24;;;;;;;15.18;8.75;;;6.20;99.90;;;;;;5102299;28;20039;-26
2022/04/19 05:33:50;;;;;;;14.20;7.68;;;6.30;99.90;;;;;;5134845;28;20051;-26
2022/04/19 05:36:16;;;;;;;11.10;7.45;;;6.40;99.90;;;;;;5134735;28;20090;-26
2022/04/19 05:38:42;;;;;;;11.82;7.93;;;6.40;99.90;;;;;;5133141;28;20046;-26
2022/04/19 05:41:07;;;;;;;22.95;9.50;;;6.50;99.90;;;;;;5131993;28;20507;-26
2022/04/19 05:43:33;;;;;;;12.68;7.53;;;6.60;99.90;;;;;;5113554;28;20036;-27
2022/04/19 05:45:59;;;;;;;12.90;8.02;;;6.70;99.90;;;;;;5113865;28;20082;-26
2022/04/19 05:48:25;;;;;;;12.05;7.60;;;6.80;99.90;;;;;;5116387;28;20047;-27
2022/04/19 05:50:51;;;;;;;13.63;8.05;;;6.80;99.90;;;;;;5117183;28;20048;-27
2022/04/19 05:53:18;;;;;;;15.27;8.02;;;6.90;99.90;;;;;;5108818;28;20051;-27
2022/04/19 05:55:44;;;;;;;14.15;7.53;;;7.00;99.60;;;;;;5117471;28;20070;-26
2022/04/19 05:58:10;;;;;;;18.58;8.82;;;7.10;96.10;;;;;;5130644;27;20480;-26
2022/04/19 06:00:36;;;;;;;13.38;7.30;;;7.20;94.20;;;;;;5119108;27;20051;-27
2022/04/19 06:05:46;;;;;;;13.00;8.27;;;7.40;89.90;;;;;;5117434;27;20484;-26
2022/04/19 06:08:12;;;;;;;16.52;8.05;;;7.50;84.70;;;;;;5137510;27;20043;-26
2022/04/19 06:10:38;;;;;;;14.70;8.88;;;7.60;76.90;;;;;;5137407;27;20442;-26
2022/04/19 06:13:04;;;;;;;11.90;7.88;;;7.70;68.10;;;;;;5113085;27;20044;-26
2022/04/19 06:15:31;;;;;;;14.38;8.13;;;7.80;59.10;;;;;;5129127;27;20050;-27
2022/04/19 06:17:57;;;;;;;12.25;7.95;;;7.90;57.20;;;;;;5117059;28;20370;-27
2022/04/19 06:20:22;;;;;;;15.23;7.63;;;7.90;59.10;;;;;;5098689;28;20065;-27
2022/04/19 06:22:48;;;;;;;11.07;7.47;;;8.00;57.60;;;;;;5120773;27;20392;-26
2022/04/19 06:25:14;;;;;;;16.00;9.18;;;8.10;62.00;;;;;;5129679;27;20106;-26
2022/04/19 06:27:40;;;;;;;14.50;8.35;;;8.20;68.40;;;;;;5126513;27;20063;-27
2022/04/19 06:30:07;;;;;;;16.98;9.55;;;8.20;69.40;;;;;;5100390;27;20304;-27
2022/04/19 06:32:33;;;;;;;13.68;8.10;;;8.40;67.50;;;;;;5136980;27;20048;-27
2022/04/19 06:34:58;;;;;;;13.55;8.82;;;8.50;73.70;;;;;;5131794;27;20504;-27
2022/04/19 06:37:25;;;;;;;14.63;8.15;;;8.60;68.10;;;;;;5134113;27;20043;-27
2022/04/19 06:39:51;;;;;;;15.13;8.55;;;8.70;62.90;;;;;;5133719;27;20052;-28
2022/04/19 06:42:17;;;;;;;13.43;8.55;;;8.80;54.20;;;;;;5119178;27;20044;-27
2022/04/19 06:44:43;;;;;;;11.07;8.27;;;8.90;42.90;;;;;;5116234;28;20051;-27
2022/04/19 06:47:08;;;;;;;14.15;8.05;;;9.10;29.90;;;;;;5112973;27;20374;-27
2022/04/19 06:49:34;;;;;;;13.13;7.47;;;9.20;19.90;;;;;;5136658;27;20043;-27
2022/04/19 06:52:00;;;;;;;17.90;7.88;;;9.30;11.90;;;;;;5136642;27;20045;-27
2022/04/19 06:54:26;;;;;;;18.50;8.27;;;9.40;1.00;;;;;;5101566;27;20468;-27
2022/04/19 06:56:52;;;;;;;12.20;7.20;;;9.60;1.00;;;;;;5136821;27;20039;-27
2022/04/19 06:59:17;;;;;;;12.48;6.88;;;9.60;1.00;;;;;;5131433;27;20039;-27
2022/04/19 07:01:43;;;;;;;11.52;6.80;;;9.80;1.00;;;;;;5136416;27;20079;-27
2022/04/19 07:04:09;;;;;;;12.05;7.85;;;9.90;1.00;;;;;;5136341;27;20043;-27
2022/04/19 07:06:36;;;;;;;14.50;8.80;;;10.10;1.00;;;;;;5136308;27;20044;-27
2022/04/19 07:09:02;;;;;;;10.60;6.97;;;10.20;1.00;;;;;;5118255;27;20062;-27
2022/04/19 07:11:29;;;;;;;12.80;7.18;;;10.30;1.00;;;;;;5135871;27;20488;-27
2022/04/19 07:13:55;;;;;;;13.95;7.70;;;10.50;1.00;;;;;;5136481;27;20043;-27
2022/04/19 07:16:20;;;;;;;13.18;7.65;;;10.60;1.00;;;;;;5118378;27;20047;-27
2022/04/19 07:18:46;;;;;;;11.25;6.68;;;10.80;1.00;;;;;;5136114;27;20039;-27
2022/04/19 07:26:40;;;;;;;10.20;5.30;;;11.30;1.00;;;;;;5116014;28;20104;-27
2022/04/19 07:29:10;;;;;;;11.05;6.05;;;11.50;1.00;;;;;;5097354;28;20048;-27
2022/04/19 07:31:40;;;;;;;7.70;4.93;;;11.70;1.00;;;;;;5115306;28;20047;-27
2022/04/19 07:34:06;;;;;;;11.77;4.85;;;11.80;1.00;;;;;;5115273;28;20078;-27
2022/04/19 07:36:42;;;;;;;10.32;5.30;;;11.90;99.90;;;;;;5115912;27;20493;-27
2022/04/19 07:39:09;;;;;;;8.82;5.45;;;12.10;99.90;;;;;;5115069;28;20044;-27
2022/04/19 07:41:35;;;;;;;8.25;4.65;;;12.20;99.90;;;;;;5115116;28;20040;-28
2022/04/19 07:44:02;;;;;;;8.30;4.93;;;12.30;99.90;;;;;;5115062;28;20054;-27
2022/04/19 07:46:28;;;;;;;7.13;4.80;;;12.40;99.90;;;;;;5116133;27;20054;-27
2022/04/19 07:48:54;;;;;;;6.65;4.28;;;12.40;99.90;;;;;;5116754;27;20043;-27
2022/04/19 07:51:21;;;;;;;7.20;5.05;;;12.50;99.90;;;;;;5104861;28;20047;-27
2022/04/19 07:53:47;;;;;;;6.03;4.25;;;12.50;99.90;;;;;;5114913;28;20048;-27
2022/04/19 07:56:12;;;;;;;7.72;4.10;;;12.60;99.90;;;;;;5134549;27;20047;-27
2022/04/19 07:58:38;;;;;;;6.03;3.80;;;12.70;99.90;;;;;;5135611;27;20111;-27
2022/04/19 08:01:04;;;;;;;7.50;4.10;;;12.80;99.90;;;;;;5135841;27;20043;-27
2022/04/19 08:03:30;;;;;;;7.05;4.95;;;12.90;99.90;;;;;;5127066;27;20057;-27
2022/04/19 08:05:56;;;;;;;8.75;4.97;;;12.90;99.90;;;;;;5130101;27;20053;-27
2022/04/19 08:08:22;;;;;;;7.55;5.20;;;13.00;99.90;;;;;;5114522;27;20079;-27
2022/04/19 08:10:49;;;;;;;8.80;5.35;;;13.00;99.90;;;;;;5117310;27;20122;-28
2022/04/19 08:13:14;;;;;;;8.73;5.13;;;13.00;99.90;;;;;;5114092;28;20040;-27
2022/04/19 08:15:40;;;;;;;8.30;4.53;;;13.20;99.90;;;;;;5096312;28;20051;-27
2022/04/19 08:18:07;;;;;;;9.88;3.83;;;13.30;99.90;;;;;;5114486;28;20094;-27
2022/04/19 08:20:33;;;;;;;4.38;2.85;;;13.40;99.90;;;;;;5114154;28;20051;-27
2022/04/19 08:22:59;;;;;;;5.28;3.25;;;13.40;99.90;;;;;;5114925;28;20100;-27
2022/04/19 08:25:25;;;;;;;4.40;2.38;;;13.50;99.90;;;;;;5115802;27;20055;-27
2022/04/19 08:27:52;;;;;;;5.50;2.80;;;13.50;99.90;;;;;;5112232;28;20051;-28
2022/04/19 08:30:19;;;;;;;3.83;2.58;;;13.70;99.90;;;;;;5114188;28;20048;-27
2022/04/19 08:32:45;;;;;;;5.25;1.92;;;13.70;99.90;;;;;;5132818;27;20050;-27
2022/04/19 08:35:12;;;;;;;4.38;2.35;;;13.80;99.90;;;;;;5107750;28;20043;-27
2022/04/19 08:37:38;;;;;;;6.18;2.05;;;13.80;1.00;;;;;;5120477;27;20035;-27
2022/04/19 08:40:10;;;;;;;4.20;2.55;;;13.80;34.70;;;;;;5114093;28;20538;-27
2022/04/19 08:42:38;;;;;;;4.05;2.55;;;13.80;1.00;;;;;;5121421;28;20077;-27
2022/04/19 08:45:05;;;;;;;3.47;2.20;;;13.70;1.00;;;;;;5091148;28;20043;-27
2022/04/19 08:47:32;;;;;;;5.80;2.22;;;13.80;1.00;;;;;;5096165;28;20104;-27
2022/04/19 08:50:01;;;;;;;4.65;2.20;;;13.80;1.00;;;;;;5129594;28;20485;-27
2022/04/19 08:52:27;;;;;;;4.47;2.88;;;13.90;1.00;;;;;;5120870;28;20485;-27
2022/04/19 08:57:40;;;;;;;3.13;1.88;;;14.20;1.00;;;;;;5125778;28;20397;-27
2022/04/19 09:00:07;;;;;;;5.20;2.40;;;14.50;1.00;;;;;;5131888;28;20080;-27
2022/04/19 09:02:37;;;;;;;2.15;1.50;;;14.70;1.00;;;;;;5127888;28;20490;-27
2022/04/19 09:05:22;;;;;;;1.77;0.82;;;15.00;1.00;;;;;;5125466;28;20477;-27
2022/04/19 09:07:50;;;;;;;2.85;0.77;;;16.00;99.90;;;;;;5115865;28;20050;-28
2022/04/19 09:10:31;;;;;;;1.73;0.68;;;17.00;99.90;;;;;;5130887;28;20071;-27
2022/04/19 09:13:00;;;;;;;1.63;1.27;;;17.60;99.90;;;;;;5119441;28;20114;-27
2022/04/19 09:15:36;;;;;;;2.88;1.10;;;18.10;99.90;;;;;;5127336;28;20043;-27
2022/04/19 09:18:03;;;;;;;2.28;0.98;;;18.30;99.90;;;;;;5134661;28;20126;-27
2022/04/19 09:20:29;;;;;;;2.78;0.75;;;18.60;99.90;;;;;;5134345;28;20051;-27
2022/04/19 09:23:03;;;;;;;1.88;1.08;;;18.70;99.90;;;;;;5135688;27;20115;-27
2022/04/19 09:25:30;;;;;;;1.83;0.95;;;18.90;99.90;;;;;;5112093;28;20480;-27
2022/04/19 09:28:00;;;;;;;1.77;0.90;;;19.10;99.90;;;;;;5117588;28;20464;-27
2022/04/19 09:30:31;;;;;;;3.78;0.95;;;19.30;99.90;;;;;;5117348;28;20045;-27
2022/04/19 09:33:04;;;;;;;1.43;1.10;;;19.40;99.90;;;;;;5118038;27;20108;-27
2022/04/19 09:35:32;;;;;;;2.78;1.27;;;19.70;99.90;;;;;;5117847;28;20039;-27
2022/04/19 09:37:58;;;;;;;3.22;1.10;;;19.90;99.90;;;;;;5099354;28;20044;-28
2022/04/19 09:40:32;;;;;;;2.20;1.40;;;20.10;99.90;;;;;;5133614;27;20083;-27
2022/04/19 09:43:06;;;;;;;2.30;0.93;;;20.40;99.90;;;;;;5126998;27;20088;-27
2022/04/19 09:45:51;;;;;;;4.93;1.27;;;20.30;99.90;;;;;;5106378;27;20043;-27
2022/04/19 09:48:26;;;;;;;1.50;1.10;;;20.30;99.90;;;;;;5126733;27;20086;-28
2022/04/19 09:50:54;;;;;;;1.45;1.13;;;20.40;99.90;;;;;;5127343;27;20118;-28
2022/04/19 09:53:23;;;;;;;2.78;1.35;;;20.60;99.90;;;;;;5124102;27;20046;-27
2022/04/19 09:55:51;;;;;;;2.80;1.38;;;20.90;99.90;;;;;;5129359;27;20126;-27
2022/04/19 09:58:17;;;;;;;2.78;1.30;;;20.70;99.90;;;;;;5124971;27;20043;-28
2022/04/19 10:00:45;;;;;;;3.25;1.50;;;20.60;99.90;;;;;;5135657;27;20035;-28
2022/04/19 10:08:46;;;;;;;4.78;1.40;;;20.60;99.90;;;;;;5133311;27;20220;-27
2022/04/19 10:11:12;;;;;;;1.98;1.45;;;20.70;99.90;;;;;;5137481;27;20093;-27
2022/04/19 10:13:40;;;;;;;1.70;0.90;;;20.60;99.90;;;;;;5102305;27;20392;-27
2022/04/19 10:16:13;;;;;;;2.03;1.17;;;20.50;99.90;;;;;;5137456;27;20104;-27
2022/04/19 10:18:39;;;;;;;2.00;1.00;;;20.50;99.90;;;;;;5125055;27;20118;-27
2022/04/19 10:21:08;;;;;;;2.38;1.48;;;20.70;99.90;;;;;;5116724;28;20066;-27
2022/04/19 10:23:39;;;;;;;2.13;1.45;;;20.90;99.90;;;;;;5116977;28;20108;-27
2022/04/19 10:26:23;;;;;;;2.88;1.45;;;21.30;99.90;;;;;;5116576;28;20059;-28
2022/04/19 10:28:54;;;;;;;5.05;1.45;;;21.20;99.90;;;;;;5099898;28;20546;-28
2022/04/19 10:31:34;;;;;;;3.03;1.55;;;21.30;99.90;;;;;;5116523;28;20093;-27
2022/04/19 10:34:02;;;;;;;3.00;1.50;;;21.50;99.90;;;;;;5116799;28;20047;-27
2022/04/19 10:36:34;;;;;;;3.00;1.40;;;21.60;99.90;;;;;;5116449;28;20055;-27
2022/04/19 10:39:12;;;;;;;1.60;1.00;;;21.70;99.90;;;;;;5099365;28;20047;-27
2022/04/19 10:41:59;;;;;;;2.75;1.25;;;21.40;99.90;;;;;;5098098;28;20044;-28
2022/04/19 10:44:29;;;;;;;2.45;1.20;;;21.30;99.90;;;;;;5116289;28;20130;-28
2022/04/19 10:47:15;;;;;;;1.90;1.38;;;21.40;99.90;;;;;;5097971;28;20056;-27
2022/04/19 10:49:57;;;;;;;2.45;1.50;;;21.60;99.90;;;;;;5117578;27;20131;-27
2022/04/19 10:52:40;;;;;;;2.15;1.40;;;21.50;99.90;;;;;;5116086;28;20059;-27
2022/04/19 10:55:11;;;;;;;4.30;1.67;;;21.50;99.90;;;;;;5116612;28;20367;-28
2022/04/19 11:00:34;;;;;;;2.25;1.20;;;22.10;99.90;;;;;;5116884;28;20112;-27
2022/04/19 11:03:03;;;;;;;4.70;1.30;;;22.40;99.90;;;;;;5098301;28;20109;-27
2022/04/19 11:05:55;;;;;;;4.40;1.40;;;22.10;99.90;;;;;;5115855;28;20083;-28
2022/04/19 11:08:26;;;;;;;2.50;1.70;;;21.90;99.90;;;;;;5117017;27;20128;-28
2022/04/19 11:11:21;;;;;;;3.00;1.40;;;22.10;99.90;;;;;;5115455;28;20047;-27
2022/04/19 11:14:16;;;;;;;1.88;1.60;;;22.10;99.90;;;;;;5116320;28;20043;-27
2022/04/19 11:16:42;;;;;;;3.30;2.00;;;22.00;99.90;;;;;;5080598;28;20138;-27
2022/04/19 11:19:19;;;;;;;2.72;2.03;;;21.80;99.90;;;;;;5092467;28;20048;-27
2022/04/19 11:21:52;;;;;;;3.42;1.80;;;21.40;99.90;;;;;;5115491;28;20040;-27
2022/04/19 11:25:00;;;;;;;3.67;1.90;;;21.30;99.90;;;;;;5116398;28;20048;-28
2022/04/19 11:27:54;;;;;;;3.88;2.05;;;21.60;99.90;;;;;;5105142;28;20097;-27
2022/04/19 11:30:25;;;;;;;2.95;1.70;;;22.00;99.90;;;;;;5116216;27;20047;-28
2022/04/19 11:32:52;;;;;;;7.95;1.70;;;21.80;99.90;;;;;;5097396;28;20422;-27
2022/04/19 11:35:19;;;;;;;1.48;1.02;;;21.90;99.90;;;;;;5097936;28;20488;-27
2022/04/19 11:37:45;;;;;;;2.47;1.23;;;22.20;99.90;;;;;;5098188;28;20091;-27
2022/04/19 11:48:41;;;;;;;3.47;1.27;;;22.40;99.90;;;;;;5114754;28;20090;-27
2022/04/19 11:51:10;;;;;;;3.20;1.40;;;22.50;99.90;;;;;;5129069;27;20500;-27
2022/04/19 11:53:37;;;;;;;4.53;1.70;;;22.30;99.90;;;;;;5135420;27;20385;-27
2022/04/19 11:56:04;;;;;;;3.58;2.22;;;22.20;99.90;;;;;;5100081;27;20404;-27
2022/04/19 11:58:31;;;;;;;2.85;2.15;;;22.20;99.90;;;;;;5100062;27;20545;-28
2022/04/19 12:01:03;;;;;;;2.42;2.03;;;22.40;99.90;;;;;;5133303;27;20062;-28
2022/04/19 12:03:32;;;;;;;2.33;1.80;;;22.60;99.90;;;;;;5135315;27;20121;-28
2022/04/19 12:06:10;;;;;;;3.70;2.15;;;22.70;99.90;;;;;;5135509;27;20430;-28
2022/04/19 12:08:38;;;;;;;6.45;2.20;;;22.40;99.90;;;;;;5135266;27;20047;-27
2022/04/19 12:11:19;;;;;;;3.97;2.72;;;22.10;99.90;;;;;;5133407;27;20112;-27
2022/04/19 12:13:47;;;;;;;4.35;2.80;;;22.20;99.90;;;;;;5135083;27;20054;-27
2022/04/19 12:16:34;;;;;;;3.63;2.58;;;22.30;99.90;;;;;;5134657;27;20446;-27
2022/04/19 12:19:02;;;;;;;3.45;2.35;;;22.50;99.90;;;;;;5135487;27;20043;-27
2022/04/19 12:21:38;;;;;;;3.83;2.58;;;22.10;99.90;;;;;;5131379;27;20043;-27
2022/04/19 12:24:09;;;;;;;2.50;1.73;;;21.90;99.90;;;;;;5114455;28;20051;-27
2022/04/19 12:26:36;;;;;;;2.47;1.50;;;21.70;99.90;;;;;;5096321;28;20420;-27
2022/04/19 12:29:11;;;;;;;1.35;1.20;;;21.00;99.90;;;;;;5096220;28;20047;-27
2022/04/19 12:31:41;;;;;;;4.55;1.40;;;20.90;99.90;;;;;;5115214;27;20055;-27
2022/04/19 12:34:08;;;;;;;3.67;1.75;;;20.90;99.90;;;;;;5114259;28;20043;-28
2022/04/19 12:36:41;;;;;;;3.67;1.98;;;21.20;99.90;;;;;;5113963;28;20533;-28
2022/04/19 12:39:07;;;;;;;3.30;1.85;;;21.30;99.90;;;;;;5114170;28;20055;-28
2022/04/19 12:41:43;;;;;;;3.25;2.05;;;21.10;99.90;;;;;;5096239;28;20048;-27
2022/04/19 12:44:18;;;;;;;3.55;1.70;;;21.10;99.90;;;;;;5115316;27;20047;-27
2022/04/19 12:46:53;;;;;;;2.10;1.48;;;21.30;99.90;;;;;;5114140;28;20043;-27
2022/04/19 12:49:24;;;;;;;3.10;1.75;;;21.70;99.90;;;;;;5114682;28;20044;-27
2022/04/19 12:52:07;;;;;;;2.03;1.40;;;21.70;99.90;;;;;;5096751;28;20043;-27
2022/04/19 12:54:34;;;;;;;;;;;21.30;99.90;;;;;;5115651;28;20289;-27
2022/04/19 12:57:09;;;;;;;4.30;1.30;;;21.10;99.90;;;;;;5116850;28;19919;-27
2022/04/19 12:59:35;;;;;;;3.30;1.67;;;21.00;99.90;;;;;;5118432;28;20054;-27
2022/04/19 13:02:01;;;;;;;2.67;1.20;;;21.10;99.90;;;;;;5118246;28;20035;-28
2022/04/19 13:04:28;;;;;;;3.03;1.30;;;21.00;99.90;;;;;;5101148;28;20055;-27
2022/04/19 13:12:26;;;;;;;2.92;1.33;;;21.40;99.90;;;;;;5118342;28;20083;-28
2022/04/19 13:14:55;;;;;;;2.22;1.60;;;21.60;99.90;;;;;;5119098;27;20115;-27
2022/04/19 13:17:22;;;;;;;2.47;1.90;;;22.00;99.90;;;;;;5118770;28;20040;-27
2022/04/19 13:19:48;;;;;;;2.15;1.60;;;21.50;99.90;;;;;;5084039;28;20040;-27
2022/04/19 13:22:14;;;;;;;2.65;1.70;;;21.60;99.90;;;;;;5118708;28;20048;-27
2022/04/19 13:24:41;;;;;;;4.82;1.50;;;21.50;99.90;;;;;;5117926;28;20481;-27
2022/04/19 13:27:08;;;;;;;2.85;1.80;;;21.80;99.90;;;;;;5118367;28;20064;-27
2022/04/19 13:29:35;;;;;;;2.60;1.67;;;21.60;99.90;;;;;;5117710;28;20052;-28
2022/04/19 13:32:01;;;;;;;2.72;1.50;;;21.30;99.90;;;;;;5099371;28;20481;-27
2022/04/19 13:34:30;;;;;;;3.15;1.70;;;21.30;99.90;;;;;;5099682;28;20090;-27
2022/04/19 13:36:57;;;;;;;3.58;1.58;;;21.10;99.90;;;;;;5100436;28;20509;-28